TAF and METAR

METAR for Mirny Airport

UERR 010830Z 00000MPS CAVOK M27/M31 Q1020 R25/490337 NOSIG RMK QFE734/0979
Report created 1. mar 09:30
wind 0 knots from N (000°) Clear sky Temperature -27° with dewpoint at -31° (Humidity 68.59%) Pressure 1020 hPa 3 mm of dry snow is covering 51% - 100% of runway 25 and friction coefficient is 0.37

TAF for Mirny Airport

TAF UERR 010800Z 0109/0209 VRB01MPS CAVOK TEMPO 0109/0112 4000 -SN SCT015
Report created 1. mar 09:00

between 1. mar 10:00 - 2. mar 10:00

wind 2 knots from various directions Clear sky

temporarily between 1. mar 10:00 - 1. mar 13:00

visibility 4000 meters light snow scattered clouds (~50% cover) at 1500 feet